createdAt,value
2023-05-13T00:00:19.623Z,102094.94
2023-05-13T00:02:49.873Z,102095.22
2023-05-13T00:05:18.296Z,102091.56
2023-05-13T00:07:46.280Z,102088.66
2023-05-13T00:10:16.964Z,102094.59
2023-05-13T00:12:46.331Z,102089.75
2023-05-13T00:15:15.239Z,102087.66
2023-05-13T00:17:46.283Z,102093.53
2023-05-13T00:20:16.541Z,102088.44
2023-05-13T00:22:44.693Z,102097.19
2023-05-13T00:25:12.930Z,102093.34
2023-05-13T00:27:41.192Z,102092.81
2023-05-13T00:30:10.937Z,102094.53
2023-05-13T00:32:40.274Z,102091.22
2023-05-13T00:35:08.946Z,102089.31
2023-05-13T00:37:39.386Z,102084.59
2023-05-13T00:40:18.819Z,102092.09
2023-05-13T00:42:47.263Z,102092.25
2023-05-13T00:45:15.425Z,102089.19
2023-05-13T00:47:44.398Z,102095.13
2023-05-13T00:50:14.765Z,102089.44
2023-05-13T00:52:50.838Z,102091.09
2023-05-13T00:55:22.799Z,102094.19
2023-05-13T00:57:51.330Z,102101.97
2023-05-13T01:00:20.515Z,102099.88
2023-05-13T01:02:59.730Z,102097.00
2023-05-13T01:05:37.303Z,102084.97
2023-05-13T01:08:18.003Z,102096.00
2023-05-13T01:10:49.840Z,102082.22
2023-05-13T01:13:24.946Z,102096.41
2023-05-13T01:16:03.104Z,102088.38
2023-05-13T01:18:37.911Z,102093.72
2023-05-13T01:21:07.508Z,102095.69
2023-05-13T01:23:37.251Z,102095.59
2023-05-13T01:26:05.928Z,102096.72
2023-05-13T01:28:34.624Z,102098.75
2023-05-13T01:31:04.055Z,102096.16
2023-05-13T01:33:33.577Z,102099.84
2023-05-13T01:36:02.688Z,102102.78
2023-05-13T01:38:33.394Z,102101.28
2023-05-13T01:41:06.340Z,102098.91
2023-05-13T01:43:36.269Z,102103.72
2023-05-13T01:46:13.616Z,102111.09
2023-05-13T01:48:42.686Z,102110.31
2023-05-13T01:51:11.369Z,102107.28
2023-05-13T01:53:42.791Z,102104.75
2023-05-13T01:56:12.204Z,102111.50
2023-05-13T01:58:41.729Z,102107.63
2023-05-13T02:01:09.877Z,102105.53
2023-05-13T02:03:38.813Z,102099.56
2023-05-13T02:06:07.430Z,102108.28
2023-05-13T02:08:35.402Z,102116.53
2023-05-13T02:11:03.700Z,102108.88
2023-05-13T02:13:33.285Z,102104.25
2023-05-13T02:16:04.461Z,102108.03
2023-05-13T02:18:33.927Z,102105.38
2023-05-13T02:21:01.999Z,102103.53
2023-05-13T02:23:30.690Z,102103.53
2023-05-13T02:25:58.627Z,102112.59
2023-05-13T02:28:26.634Z,102114.78
2023-05-13T02:30:56.642Z,102108.47
2023-05-13T02:33:24.891Z,102107.69
2023-05-13T02:35:53.157Z,102112.91
2023-05-13T02:38:21.664Z,102112.97
2023-05-13T02:40:51.353Z,102110.59
2023-05-13T02:43:19.824Z,102112.31
2023-05-13T02:45:50.459Z,102109.06
2023-05-13T02:48:22.431Z,102112.00
2023-05-13T02:50:51.127Z,102106.03
2023-05-13T02:53:19.226Z,102108.63
2023-05-13T02:55:47.188Z,102101.97
2023-05-13T02:58:18.112Z,102098.72
2023-05-13T03:00:46.470Z,102107.38
2023-05-13T03:03:14.770Z,102111.38
2023-05-13T03:05:47.565Z,102112.31
2023-05-13T03:08:15.600Z,102106.09
2023-05-13T03:10:43.611Z,102112.97
2023-05-13T03:13:12.398Z,102108.50
2023-05-13T03:15:41.529Z,102108.53
2023-05-13T03:18:11.637Z,102114.25
2023-05-13T03:20:42.121Z,102115.13
2023-05-13T03:23:12.236Z,102112.69
2023-05-13T03:25:40.360Z,102114.13
2023-05-13T03:28:10.024Z,102117.44
2023-05-13T03:30:38.118Z,102116.56
2023-05-13T03:33:06.284Z,102121.16
2023-05-13T03:35:34.577Z,102116.44
2023-05-13T03:38:02.544Z,102114.94
2023-05-13T03:40:34.509Z,102108.88
2023-05-13T03:43:03.502Z,102107.34
2023-05-13T03:45:31.879Z,102110.47
2023-05-13T03:48:00.038Z,102114.56
2023-05-13T03:50:28.200Z,102113.50
2023-05-13T03:52:57.402Z,102118.41
2023-05-13T03:55:25.666Z,102120.63
2023-05-13T03:57:54.989Z,102118.53
2023-05-13T04:00:23.203Z,102120.00
2023-05-13T04:02:51.876Z,102124.19
2023-05-13T04:05:24.027Z,102119.41
2023-05-13T04:07:52.158Z,102115.84
2023-05-13T04:10:20.775Z,102123.84
2023-05-13T04:12:49.350Z,102119.47
2023-05-13T04:15:18.811Z,102125.72
2023-05-13T04:17:46.867Z,102123.16
2023-05-13T04:20:15.305Z,102127.00
2023-05-13T04:22:43.288Z,102119.13
2023-05-13T04:25:12.166Z,102124.09
2023-05-13T04:27:40.451Z,102134.44
2023-05-13T04:30:10.041Z,102126.41
2023-05-13T04:32:39.413Z,102126.66
2023-05-13T04:35:10.006Z,102132.94
2023-05-13T04:37:38.107Z,102130.91
2023-05-13T04:40:08.070Z,102126.03
2023-05-13T04:42:41.664Z,102127.94
2023-05-13T04:45:15.578Z,102139.53
2023-05-13T04:47:45.386Z,102129.63
2023-05-13T04:50:13.360Z,102140.09
2023-05-13T04:52:42.981Z,102136.56
2023-05-13T04:55:11.706Z,102132.34
2023-05-13T04:57:40.312Z,102146.09
2023-05-13T05:00:09.863Z,102139.75
2023-05-13T05:02:37.940Z,102143.53
2023-05-13T05:05:08.187Z,102141.94
2023-05-13T05:07:40.446Z,102143.97
2023-05-13T05:10:09.650Z,102154.31
2023-05-13T05:12:38.338Z,102150.69
2023-05-13T05:15:11.423Z,102153.41
2023-05-13T05:17:39.439Z,102152.03
2023-05-13T05:20:10.408Z,102142.41
2023-05-13T05:22:38.889Z,102145.78
2023-05-13T05:25:07.487Z,102149.81
2023-05-13T05:27:36.480Z,102159.94
2023-05-13T05:30:04.888Z,102156.34
2023-05-13T05:32:32.964Z,102161.97
2023-05-13T05:35:02.254Z,102159.56
2023-05-13T05:37:32.055Z,102158.78
2023-05-13T05:40:00.047Z,102160.53
2023-05-13T05:42:27.980Z,102153.41
2023-05-13T05:44:56.022Z,102156.34
2023-05-13T05:47:24.126Z,102157.75
2023-05-13T05:49:52.043Z,102151.59
2023-05-13T05:52:20.567Z,102158.81
2023-05-13T05:54:50.064Z,102151.59
2023-05-13T05:57:18.317Z,102156.91
2023-05-13T05:59:46.364Z,102150.44
2023-05-13T06:02:14.591Z,102153.75
2023-05-13T06:04:42.850Z,102159.09
2023-05-13T06:07:10.928Z,102156.72
2023-05-13T06:09:39.072Z,102159.13
2023-05-13T06:12:08.928Z,102160.31
2023-05-13T06:14:36.912Z,102159.28
2023-05-13T06:17:04.897Z,102157.94
2023-05-13T06:19:34.176Z,102156.44
2023-05-13T06:22:03.815Z,102158.94
2023-05-13T06:24:35.816Z,102163.06
2023-05-13T06:27:07.355Z,102154.41
2023-05-13T06:29:38.472Z,102168.06
2023-05-13T06:32:07.677Z,102167.84
2023-05-13T06:34:38.438Z,102160.22
2023-05-13T06:37:06.597Z,102158.91
2023-05-13T06:39:35.403Z,102148.88
2023-05-13T06:42:03.462Z,102148.47
2023-05-13T06:44:31.854Z,102149.88
2023-05-13T06:47:03.047Z,102146.72
2023-05-13T06:49:31.764Z,102153.56
2023-05-13T06:51:59.853Z,102145.38
2023-05-13T06:54:27.898Z,102146.69
2023-05-13T06:56:55.977Z,102146.78
2023-05-13T06:59:23.960Z,102146.50
2023-05-13T07:01:51.929Z,102153.66
2023-05-13T07:04:21.412Z,102149.00
2023-05-13T07:06:50.622Z,102147.81
2023-05-13T07:09:18.894Z,102147.09
2023-05-13T07:11:47.382Z,102144.91
2023-05-13T07:14:15.407Z,102145.00
2023-05-13T07:16:43.632Z,102148.56
2023-05-13T07:19:11.552Z,102145.19
2023-05-13T07:21:40.871Z,102154.00
2023-05-13T07:24:09.712Z,102138.22
2023-05-13T07:26:37.830Z,102148.81
2023-05-13T07:29:06.294Z,102154.59
2023-05-13T07:31:35.831Z,102144.72
2023-05-13T07:34:03.707Z,102150.19
2023-05-13T07:36:31.809Z,102145.34
2023-05-13T07:39:02.245Z,102150.41
2023-05-13T07:41:30.397Z,102147.88
2023-05-13T07:43:58.228Z,102146.47
2023-05-13T07:46:26.377Z,102142.91
2023-05-13T07:48:54.831Z,102143.69
2023-05-13T07:51:22.792Z,102139.31
2023-05-13T07:53:51.771Z,102140.97
2023-05-13T07:56:21.061Z,102146.00
2023-05-13T07:58:50.369Z,102148.09
2023-05-13T08:01:18.669Z,102142.38
2023-05-13T08:03:46.913Z,102137.66
2023-05-13T08:06:14.958Z,102143.84
2023-05-13T08:08:42.972Z,102141.34
2023-05-13T08:11:11.099Z,102141.69
2023-05-13T08:13:40.625Z,102140.47
2023-05-13T08:16:09.141Z,102140.69
2023-05-13T08:18:37.389Z,102144.97
2023-05-13T08:21:05.666Z,102146.81
2023-05-13T08:23:44.687Z,102142.63
2023-05-13T08:26:13.849Z,102142.47
2023-05-13T08:28:43.555Z,102140.41
2023-05-13T08:31:12.890Z,102136.75
2023-05-13T08:33:42.005Z,102134.41
2023-05-13T08:36:11.180Z,102135.25
2023-05-13T08:38:39.218Z,102133.16
2023-05-13T08:41:07.987Z,102134.19
2023-05-13T08:43:39.986Z,102131.69
2023-05-13T08:46:12.331Z,102130.91
2023-05-13T08:48:42.111Z,102129.09
2023-05-13T08:51:10.666Z,102130.84
2023-05-13T08:53:40.812Z,102131.69
2023-05-13T08:56:10.516Z,102129.19
2023-05-13T08:58:38.430Z,102132.88
2023-05-13T09:01:07.872Z,102132.75
2023-05-13T09:03:49.414Z,102133.72
2023-05-13T09:06:17.357Z,102135.38
2023-05-13T09:08:45.622Z,102130.81
2023-05-13T09:11:14.210Z,102129.84
2023-05-13T09:13:44.213Z,102127.53
2023-05-13T09:16:13.051Z,102126.78
2023-05-13T09:18:43.576Z,102131.91
2023-05-13T09:21:24.757Z,102136.16
2023-05-13T09:23:57.971Z,102134.50
2023-05-13T09:26:29.317Z,102127.38
2023-05-13T09:29:22.450Z,102123.72
2023-05-13T09:31:52.214Z,102133.47
2023-05-13T09:34:33.126Z,102136.56
2023-05-13T09:37:02.687Z,102134.91
2023-05-13T09:39:34.136Z,102118.28
2023-05-13T09:42:04.818Z,102133.28
2023-05-13T09:44:33.812Z,102126.97
2023-05-13T09:47:03.373Z,102124.28
2023-05-13T09:49:33.217Z,102126.38
2023-05-13T09:52:01.229Z,102126.19
2023-05-13T09:54:35.629Z,102130.53
2023-05-13T09:57:05.932Z,102127.34
2023-05-13T09:59:34.088Z,102124.59
2023-05-13T10:02:05.544Z,102128.41
2023-05-13T10:04:35.315Z,102126.00
2023-05-13T10:07:07.572Z,102116.53
2023-05-13T10:09:40.058Z,102129.84
2023-05-13T10:12:12.771Z,102113.03
2023-05-13T10:14:41.604Z,102119.97
2023-05-13T10:17:10.935Z,102119.75
2023-05-13T10:19:40.819Z,102108.88
2023-05-13T10:22:09.874Z,102116.94
2023-05-13T10:24:40.218Z,102114.72
2023-05-13T10:27:09.533Z,102111.72
2023-05-13T10:29:40.582Z,102112.53
2023-05-13T10:32:10.566Z,102108.25
2023-05-13T10:34:42.106Z,102105.88
2023-05-13T10:37:35.741Z,102112.41
2023-05-13T10:40:24.404Z,102100.47
2023-05-13T10:43:01.738Z,102097.75
2023-05-13T10:45:33.649Z,102101.69
2023-05-13T10:48:07.284Z,102102.44
2023-05-13T10:50:40.007Z,102094.94
2023-05-13T10:53:19.089Z,102115.56
2023-05-13T10:55:47.283Z,102101.03
2023-05-13T10:58:16.482Z,102091.97
2023-05-13T11:00:45.885Z,102091.09
2023-05-13T11:03:16.189Z,102084.50
2023-05-13T11:05:48.358Z,102085.47
2023-05-13T11:08:40.801Z,102086.09
2023-05-13T11:11:31.105Z,102085.09
2023-05-13T11:14:20.735Z,102082.28
2023-05-13T11:16:53.861Z,102075.72
2023-05-13T11:19:24.395Z,102068.38
2023-05-13T11:21:55.482Z,102077.19
2023-05-13T11:24:24.429Z,102078.81
2023-05-13T11:26:56.372Z,102070.09
2023-05-13T11:29:34.799Z,102065.28
2023-05-13T11:32:04.345Z,102081.56
2023-05-13T11:34:34.029Z,102060.91
2023-05-13T11:37:10.981Z,102065.19
2023-05-13T11:39:42.637Z,102064.09
2023-05-13T11:42:12.001Z,102061.03
2023-05-13T11:44:47.329Z,102063.22
2023-05-13T11:47:15.780Z,102076.22
2023-05-13T11:49:45.093Z,102069.47
2023-05-13T11:52:16.006Z,102063.84
2023-05-13T11:54:46.045Z,102068.97
2023-05-13T11:57:24.361Z,102072.53
2023-05-13T11:59:56.232Z,102073.31
2023-05-13T12:02:26.328Z,102072.78
2023-05-13T12:04:54.870Z,102072.94
2023-05-13T12:07:26.757Z,102069.28
2023-05-13T12:09:58.385Z,102067.88
2023-05-13T12:12:28.012Z,102072.94
2023-05-13T12:14:57.097Z,102079.28
2023-05-13T12:17:25.676Z,102070.28
2023-05-13T12:20:06.820Z,102068.53
2023-05-13T12:22:37.360Z,102076.03
2023-05-13T12:25:40.598Z,102070.44
2023-05-13T12:28:13.168Z,102074.63
2023-05-13T12:30:42.636Z,102060.94
2023-05-13T12:33:15.523Z,102071.75
2023-05-13T12:35:43.821Z,102074.84
2023-05-13T12:38:18.377Z,102064.84
2023-05-13T12:40:47.474Z,102063.84
2023-05-13T12:43:16.915Z,102065.09
2023-05-13T12:45:46.693Z,102068.44
2023-05-13T12:48:15.153Z,102068.81
2023-05-13T12:50:43.370Z,102061.75
2023-05-13T12:53:12.711Z,102067.59
2023-05-13T12:55:40.749Z,102074.66
2023-05-13T12:58:11.975Z,102064.38
2023-05-13T13:00:40.500Z,102072.97
2023-05-13T13:03:09.029Z,102066.31
2023-05-13T13:05:37.934Z,102060.47
2023-05-13T13:08:06.400Z,102067.88
2023-05-13T13:10:35.992Z,102065.75
2023-05-13T13:13:04.197Z,102062.09
2023-05-13T13:15:32.239Z,102056.81
2023-05-13T13:18:00.511Z,102056.84
2023-05-13T13:20:28.634Z,102046.44
2023-05-13T13:22:56.569Z,102049.09
2023-05-13T13:25:25.060Z,102042.88
2023-05-13T13:27:54.352Z,102048.63
2023-05-13T13:30:30.667Z,102046.00
2023-05-13T13:33:00.730Z,102041.53
2023-05-13T13:35:29.216Z,102048.34
2023-05-13T13:37:57.422Z,102041.53
2023-05-13T13:40:26.021Z,102037.63
2023-05-13T13:42:55.575Z,102048.78
2023-05-13T13:45:24.189Z,102053.63
2023-05-13T13:47:52.227Z,102048.34
2023-05-13T13:50:20.946Z,102040.88
2023-05-13T13:52:49.096Z,102036.03
2023-05-13T13:55:17.138Z,102038.44
2023-05-13T13:57:45.026Z,102031.09
2023-05-13T14:00:16.590Z,102031.00
2023-05-13T14:02:44.747Z,102034.00
2023-05-13T14:05:13.681Z,102028.22
2023-05-13T14:07:42.060Z,102030.19
2023-05-13T14:10:11.452Z,102028.31
2023-05-13T14:12:42.847Z,102026.75
2023-05-13T14:15:11.727Z,102031.66
2023-05-13T14:17:41.398Z,102015.63
2023-05-13T14:20:13.343Z,102012.97
2023-05-13T14:22:41.639Z,102020.81
2023-05-13T14:25:10.421Z,102013.94
2023-05-13T14:27:40.177Z,102017.91
2023-05-13T14:30:09.651Z,102017.53
2023-05-13T14:32:38.479Z,102010.72
2023-05-13T14:35:09.021Z,102003.84
2023-05-13T14:37:36.969Z,102007.88
2023-05-13T14:40:05.590Z,102000.72
2023-05-13T14:42:34.240Z,102002.38
2023-05-13T14:45:02.564Z,101997.75
2023-05-13T14:47:30.701Z,102000.75
2023-05-13T14:50:00.809Z,102010.06
2023-05-13T14:52:30.880Z,102016.47
2023-05-13T14:54:58.918Z,102006.78
2023-05-13T14:57:27.713Z,102011.03
2023-05-13T14:59:56.397Z,102004.19
2023-05-13T15:02:27.513Z,102003.38
2023-05-13T15:04:55.530Z,102004.63
2023-05-13T15:07:23.724Z,102002.75
2023-05-13T15:09:53.131Z,102010.34
2023-05-13T15:12:22.253Z,102008.53
2023-05-13T15:14:53.711Z,102004.19
2023-05-13T15:17:22.055Z,101997.22
2023-05-13T15:19:50.156Z,101992.63
2023-05-13T15:22:19.623Z,101994.75
2023-05-13T15:24:47.670Z,101998.13
2023-05-13T15:27:19.547Z,101986.34
2023-05-13T15:29:47.591Z,101993.47
2023-05-13T15:32:15.532Z,101989.81
2023-05-13T15:34:43.567Z,101989.78
2023-05-13T15:37:11.775Z,101978.94
2023-05-13T15:39:39.678Z,101981.53
2023-05-13T15:42:08.391Z,101982.91
2023-05-13T15:44:39.606Z,101987.97
2023-05-13T15:47:07.890Z,101977.03
2023-05-13T15:49:36.645Z,101980.78
2023-05-13T15:52:07.216Z,101971.34
2023-05-13T15:54:35.610Z,101974.34
2023-05-13T15:57:03.778Z,101980.59
2023-05-13T15:59:31.782Z,101972.53
2023-05-13T16:02:01.287Z,101981.66
2023-05-13T16:04:29.568Z,101977.47
2023-05-13T16:06:57.892Z,101973.94
2023-05-13T16:09:28.343Z,101966.75
2023-05-13T16:11:57.246Z,101967.59
2023-05-13T16:14:28.156Z,101973.41
2023-05-13T16:17:00.817Z,101975.00
2023-05-13T16:19:31.526Z,101972.91
2023-05-13T16:21:59.526Z,101964.88
2023-05-13T16:24:31.319Z,101959.94
2023-05-13T16:26:59.286Z,101966.16
2023-05-13T16:29:28.209Z,101962.66
2023-05-13T16:31:57.339Z,101960.56
2023-05-13T16:34:30.759Z,101958.97
2023-05-13T16:36:59.287Z,101958.38
2023-05-13T16:39:31.250Z,101949.44
2023-05-13T16:41:59.267Z,101954.16
2023-05-13T16:44:30.794Z,101950.41
2023-05-13T16:46:59.035Z,101961.16
2023-05-13T16:49:30.409Z,101960.03
2023-05-13T16:51:58.604Z,101958.03
2023-05-13T16:54:29.321Z,101960.63
2023-05-13T16:56:57.304Z,101950.88
2023-05-13T16:59:29.591Z,101958.34
2023-05-13T17:01:57.637Z,101953.25
2023-05-13T17:04:30.161Z,101944.63
2023-05-13T17:06:59.762Z,101949.41
2023-05-13T17:09:30.908Z,101947.81
2023-05-13T17:11:59.168Z,101947.41
2023-05-13T17:14:28.584Z,101947.66
2023-05-13T17:16:56.702Z,101943.66
2023-05-13T17:19:24.610Z,101943.97
2023-05-13T17:21:52.809Z,101941.81
2023-05-13T17:24:22.401Z,101945.25
2023-05-13T17:26:50.606Z,101942.09
2023-05-13T17:29:18.661Z,101938.41
2023-05-13T17:31:51.812Z,101936.56
2023-05-13T17:34:19.837Z,101931.25
2023-05-13T17:36:49.994Z,101938.97
2023-05-13T17:39:18.686Z,101938.97
2023-05-13T17:41:48.078Z,101941.38
2023-05-13T17:44:16.256Z,101939.38
2023-05-13T17:46:44.265Z,101940.25
2023-05-13T17:49:12.451Z,101944.56
2023-05-13T17:51:42.150Z,101942.69
2023-05-13T17:54:11.519Z,101942.69
2023-05-13T17:56:39.523Z,101942.25
2023-05-13T17:59:09.614Z,101944.84
2023-05-13T18:01:37.997Z,101940.97
2023-05-13T18:04:06.129Z,101940.56
2023-05-13T18:06:34.366Z,101944.97
2023-05-13T18:09:02.858Z,101950.28
2023-05-13T18:11:30.918Z,101946.09
2023-05-13T18:13:58.912Z,101951.97
2023-05-13T18:16:31.219Z,101938.75
2023-05-13T18:18:59.277Z,101942.72
2023-05-13T18:21:30.855Z,101944.84
2023-05-13T18:23:58.851Z,101949.38
2023-05-13T18:26:27.666Z,101945.94
2023-05-13T18:28:55.743Z,101952.03
2023-05-13T18:31:24.204Z,101951.75
2023-05-13T18:33:53.495Z,101957.97
2023-05-13T18:36:21.508Z,101951.81
2023-05-13T18:38:49.501Z,101955.44
2023-05-13T18:41:17.645Z,101956.13
2023-05-13T18:43:46.042Z,101959.75
2023-05-13T18:46:14.113Z,101956.97
2023-05-13T18:48:45.456Z,101960.91
2023-05-13T18:51:16.502Z,101961.28
2023-05-13T18:53:44.996Z,101967.50
2023-05-13T18:56:12.925Z,101966.09
2023-05-13T18:58:40.871Z,101971.66
2023-05-13T19:01:09.343Z,101970.09
2023-05-13T19:03:37.521Z,101976.00
2023-05-13T19:06:05.791Z,101976.41
2023-05-13T19:08:35.094Z,101982.59
2023-05-13T19:11:03.334Z,101989.78
2023-05-13T19:13:45.733Z,101981.66
2023-05-13T19:16:15.280Z,101987.78
2023-05-13T19:18:43.453Z,101986.84
2023-05-13T19:21:11.796Z,101988.41
2023-05-13T19:23:41.093Z,101982.38
2023-05-13T19:26:09.546Z,101986.94
2023-05-13T19:28:38.193Z,101997.38
2023-05-13T19:31:07.493Z,101994.66
2023-05-13T19:33:37.028Z,101992.69
2023-05-13T19:36:05.109Z,101990.22
2023-05-13T19:38:33.100Z,102001.78
2023-05-13T19:41:02.856Z,102009.75
2023-05-13T19:43:30.894Z,101992.63
2023-05-13T19:45:59.106Z,102004.44
2023-05-13T19:48:29.128Z,102002.53
2023-05-13T19:50:58.645Z,102010.63
2023-05-13T19:53:30.565Z,102012.06
2023-05-13T19:55:58.524Z,102004.28
2023-05-13T19:58:29.629Z,102005.06
2023-05-13T20:00:58.224Z,102011.22
2023-05-13T20:03:29.645Z,102010.13
2023-05-13T20:05:57.939Z,102009.00
2023-05-13T20:08:26.075Z,102014.50
2023-05-13T20:10:54.381Z,102014.22
2023-05-13T20:13:22.539Z,102012.91
2023-05-13T20:15:52.477Z,102007.06
2023-05-13T20:18:20.438Z,102007.94
2023-05-13T20:20:48.766Z,102009.91
2023-05-13T20:23:16.752Z,101998.97
2023-05-13T20:25:46.610Z,102006.13
2023-05-13T20:28:14.686Z,102001.72
2023-05-13T20:30:42.858Z,102000.09
2023-05-13T20:33:12.747Z,102001.72
2023-05-13T20:35:41.206Z,101994.81
2023-05-13T20:38:09.474Z,102001.97
2023-05-13T20:40:37.844Z,101991.88
2023-05-13T20:43:07.754Z,101991.50
2023-05-13T20:45:39.319Z,101993.31
2023-05-13T20:48:08.151Z,101994.75
2023-05-13T20:50:37.739Z,101990.75
2023-05-13T20:53:05.674Z,101990.00
2023-05-13T20:55:33.692Z,101990.75
2023-05-13T20:58:01.571Z,101988.81
2023-05-13T21:00:31.923Z,101987.97
2023-05-13T21:02:59.993Z,101993.56
2023-05-13T21:05:32.191Z,101987.41
2023-05-13T21:08:01.883Z,101994.47
2023-05-13T21:10:29.915Z,101984.44
2023-05-13T21:12:57.891Z,101990.78
2023-05-13T21:15:29.766Z,101991.78
2023-05-13T21:17:58.178Z,101986.28
2023-05-13T21:20:28.009Z,101983.00
2023-05-13T21:22:56.214Z,101987.88
2023-05-13T21:25:26.054Z,101984.22
2023-05-13T21:27:54.132Z,101985.16
2023-05-13T21:30:22.782Z,101985.81
2023-05-13T21:32:51.334Z,101979.78
2023-05-13T21:35:19.460Z,101977.41
2023-05-13T21:37:47.823Z,101976.78
2023-05-13T21:40:16.573Z,101988.81
2023-05-13T21:42:45.939Z,101976.97
2023-05-13T21:45:15.140Z,101980.72
2023-05-13T21:47:43.508Z,101982.44
2023-05-13T21:50:12.231Z,101977.97
2023-05-13T21:52:40.447Z,101977.16
2023-05-13T21:55:09.108Z,101979.63
2023-05-13T21:57:37.035Z,101986.06
2023-05-13T22:00:10.796Z,101995.03
2023-05-13T22:02:38.829Z,101995.13
2023-05-13T22:05:07.826Z,101990.88
2023-05-13T22:07:36.216Z,101984.81
2023-05-13T22:10:04.807Z,101995.38
2023-05-13T22:12:33.333Z,101992.16
2023-05-13T22:15:01.258Z,101989.22
2023-05-13T22:17:30.954Z,101992.03
2023-05-13T22:19:59.004Z,101997.72
2023-05-13T22:22:27.301Z,101992.19
2023-05-13T22:24:55.239Z,101985.94
2023-05-13T22:27:23.239Z,101987.66
2023-05-13T22:29:51.554Z,101988.63
2023-05-13T22:32:19.551Z,101988.81
2023-05-13T22:34:48.885Z,101992.00
2023-05-13T22:37:17.011Z,101992.88
2023-05-13T22:39:45.212Z,101992.50
2023-05-13T22:42:13.298Z,101981.91
2023-05-13T22:44:41.496Z,101980.81
2023-05-13T22:47:10.141Z,101983.38
2023-05-13T22:49:38.216Z,101982.41
2023-05-13T22:52:07.987Z,101986.09
2023-05-13T22:54:35.968Z,101985.31
2023-05-13T22:57:03.925Z,101977.97
2023-05-13T22:59:31.829Z,101975.72
2023-05-13T23:02:01.407Z,101974.66
2023-05-13T23:04:30.364Z,101977.84
2023-05-13T23:06:58.897Z,101975.72
2023-05-13T23:09:30.599Z,101977.41
2023-05-13T23:11:58.845Z,101975.66
2023-05-13T23:14:30.210Z,101976.31
2023-05-13T23:16:58.154Z,101971.03
2023-05-13T23:19:28.997Z,101970.16
2023-05-13T23:21:57.082Z,101966.72
2023-05-13T23:24:25.408Z,101969.69
2023-05-13T23:26:55.360Z,101973.13
2023-05-13T23:29:27.526Z,101969.69
2023-05-13T23:31:56.194Z,101975.16
2023-05-13T23:34:24.299Z,101975.06
2023-05-13T23:36:52.275Z,101968.44
2023-05-13T23:39:20.417Z,101983.34
2023-05-13T23:41:51.117Z,101971.72
2023-05-13T23:44:20.841Z,101975.66
2023-05-13T23:46:49.112Z,101977.78
2023-05-13T23:49:17.124Z,101974.06
2023-05-13T23:51:45.117Z,101967.91
2023-05-13T23:54:13.188Z,101972.41
2023-05-13T23:56:41.131Z,101961.09
2023-05-13T23:59:09.636Z,101957.16
